createdAt,value
2018-06-21T00:01:18.990Z,8.83
2018-06-21T00:03:49.835Z,8.27
2018-06-21T00:06:20.884Z,8.60
2018-06-21T00:08:52.135Z,8.60
2018-06-21T00:11:23.564Z,8.30
2018-06-21T00:13:54.391Z,8.60
2018-06-21T00:16:25.127Z,8.40
2018-06-21T00:18:56.127Z,8.50
2018-06-21T00:21:27.270Z,9.17
2018-06-21T00:23:58.353Z,8.50
2018-06-21T00:26:29.451Z,12.37
2018-06-21T00:29:00.355Z,8.50
2018-06-21T00:31:31.182Z,8.67
2018-06-21T00:34:04.440Z,7.70
2018-06-21T00:36:35.487Z,8.30
2018-06-21T00:39:08.447Z,8.67
2018-06-21T00:41:39.190Z,10.30
2018-06-21T00:44:09.930Z,8.93
2018-06-21T00:46:40.906Z,9.03
2018-06-21T00:49:11.616Z,8.40
2018-06-21T00:51:42.451Z,8.57
2018-06-21T00:54:13.194Z,9.90
2018-06-21T00:56:44.153Z,9.43
2018-06-21T00:59:14.426Z,9.37
2018-06-21T01:01:45.290Z,8.50
2018-06-21T01:04:16.310Z,9.33
2018-06-21T01:06:46.921Z,9.03
2018-06-21T01:09:18.034Z,9.53
2018-06-21T01:21:00.597Z,8.90
2018-06-21T01:23:31.498Z,10.80
2018-06-21T01:26:02.169Z,9.20
2018-06-21T01:28:33.112Z,8.83
2018-06-21T01:31:03.852Z,9.67
2018-06-21T01:33:34.863Z,9.43
2018-06-21T01:36:05.527Z,9.20
2018-06-21T01:38:36.359Z,9.17
2018-06-21T01:41:07.135Z,9.07
2018-06-21T01:43:37.980Z,9.90
2018-06-21T01:46:08.762Z,8.63
2018-06-21T01:48:39.771Z,9.80
2018-06-21T01:51:11.877Z,10.40
2018-06-21T01:53:42.923Z,8.50
2018-06-21T01:56:14.359Z,9.97
2018-06-21T01:58:46.277Z,8.97
2018-06-21T02:01:17.152Z,9.57
2018-06-21T02:03:48.449Z,9.70
2018-06-21T02:06:19.543Z,9.73
2018-06-21T02:08:50.666Z,9.77
2018-06-21T02:11:21.811Z,9.67
2018-06-21T02:13:52.877Z,9.63
2018-06-21T02:16:23.922Z,9.27
2018-06-21T02:18:55.649Z,9.00
2018-06-21T02:21:26.595Z,9.80
2018-06-21T02:23:57.478Z,10.00
2018-06-21T02:26:28.591Z,10.13
2018-06-21T02:28:59.479Z,8.63
2018-06-21T02:31:30.503Z,9.77
2018-06-21T02:34:01.291Z,10.97
2018-06-21T02:36:32.288Z,10.30
2018-06-21T02:39:03.477Z,9.80
2018-06-21T02:41:34.617Z,9.10
2018-06-21T02:44:05.572Z,10.30
2018-06-21T02:46:36.454Z,10.30
2018-06-21T02:49:07.404Z,9.77
2018-06-21T02:51:38.246Z,9.90
2018-06-21T02:54:09.363Z,8.97
2018-06-21T02:56:40.527Z,9.70
2018-06-21T02:59:11.838Z,10.00
2018-06-21T03:01:43.194Z,11.10
2018-06-21T03:04:14.366Z,8.97
2018-06-21T03:06:45.327Z,9.83
2018-06-21T03:09:16.115Z,9.17
2018-06-21T03:11:47.353Z,9.63
2018-06-21T03:14:18.247Z,10.33
2018-06-21T03:16:49.016Z,9.07
2018-06-21T03:19:19.883Z,10.90
2018-06-21T03:21:50.766Z,9.37
2018-06-21T03:24:21.662Z,9.87
2018-06-21T03:26:52.444Z,9.03
2018-06-21T03:29:23.344Z,8.83
2018-06-21T03:31:54.133Z,10.07
2018-06-21T03:34:24.966Z,9.23
2018-06-21T03:36:55.812Z,8.50
2018-06-21T03:39:27.108Z,9.03
2018-06-21T03:41:57.983Z,8.97
2018-06-21T03:44:28.978Z,9.13
2018-06-21T03:47:00.347Z,9.40
2018-06-21T03:49:31.273Z,9.83
2018-06-21T03:52:02.096Z,9.60
2018-06-21T03:54:33.229Z,8.73
2018-06-21T03:57:04.324Z,9.97
2018-06-21T03:59:35.480Z,9.37
2018-06-21T04:02:06.819Z,9.13
2018-06-21T04:04:37.675Z,9.07
2018-06-21T04:07:08.455Z,9.80
2018-06-21T04:09:39.293Z,8.77
2018-06-21T04:12:09.936Z,9.30
2018-06-21T04:14:40.842Z,8.87
2018-06-21T04:17:11.557Z,9.20
2018-06-21T04:19:42.426Z,10.80
2018-06-21T04:22:13.151Z,7.97
2018-06-21T04:24:43.896Z,8.53
2018-06-21T04:27:14.644Z,8.10
2018-06-21T04:29:45.762Z,8.13
2018-06-21T04:32:17.075Z,9.30
2018-06-21T04:34:48.193Z,8.57
2018-06-21T04:37:19.145Z,7.93
2018-06-21T04:39:50.202Z,8.17
2018-06-21T04:42:21.383Z,8.10
2018-06-21T04:44:52.359Z,7.87
2018-06-21T04:47:23.370Z,7.20
2018-06-21T04:49:54.479Z,8.07
2018-06-21T04:52:25.359Z,7.97
2018-06-21T04:54:56.363Z,8.27
2018-06-21T04:57:27.384Z,7.97
2018-06-21T04:59:58.273Z,7.43
2018-06-21T05:02:28.994Z,7.93
2018-06-21T05:04:59.839Z,7.43
2018-06-21T05:07:30.587Z,7.50
2018-06-21T05:10:01.313Z,7.63
2018-06-21T05:12:32.064Z,7.73
2018-06-21T05:15:02.756Z,7.23
2018-06-21T05:17:33.539Z,7.30
2018-06-21T05:20:04.324Z,8.30
2018-06-21T05:22:35.099Z,7.60
2018-06-21T05:25:06.178Z,7.00
2018-06-21T05:27:36.894Z,7.33
2018-06-21T05:30:07.575Z,7.93
2018-06-21T05:32:38.839Z,7.77
2018-06-21T05:35:09.682Z,8.00
2018-06-21T05:37:40.792Z,7.93
2018-06-21T05:40:22.190Z,7.77
2018-06-21T05:42:53.337Z,18.40
2018-06-21T05:45:24.081Z,7.50
2018-06-21T05:47:55.865Z,7.40
2018-06-21T05:50:26.661Z,7.60
2018-06-21T05:52:58.449Z,7.73
2018-06-21T05:55:29.737Z,9.90
2018-06-21T05:58:00.873Z,8.33
2018-06-21T06:00:31.836Z,8.03
2018-06-21T06:03:02.590Z,8.20
2018-06-21T06:05:33.385Z,10.53
2018-06-21T06:08:04.178Z,10.90
2018-06-21T06:10:34.832Z,8.20
2018-06-21T06:13:05.791Z,12.43
2018-06-21T06:15:36.807Z,8.87
2018-06-21T06:18:07.510Z,8.13
2018-06-21T06:20:38.241Z,10.03
2018-06-21T06:23:08.915Z,9.13
2018-06-21T06:25:39.654Z,8.97
2018-06-21T06:28:10.377Z,9.33
2018-06-21T06:30:41.092Z,8.70
2018-06-21T06:33:12.614Z,8.50
2018-06-21T06:35:43.551Z,11.80
2018-06-21T06:38:14.255Z,8.10
2018-06-21T06:40:45.158Z,8.80
2018-06-21T06:43:15.891Z,8.10
2018-06-21T06:45:46.725Z,7.73
2018-06-21T06:48:21.355Z,11.60
2018-06-21T06:50:52.195Z,7.63
2018-06-21T06:53:23.008Z,8.07
2018-06-21T06:55:53.793Z,7.85
2018-06-21T06:58:24.515Z,6.97
2018-06-21T07:00:55.324Z,7.58
2018-06-21T07:03:28.695Z,6.53
2018-06-21T07:05:59.455Z,7.87
2018-06-21T07:08:30.200Z,6.92
2018-06-21T07:11:00.934Z,7.42
2018-06-21T07:13:31.737Z,6.30
2018-06-21T07:16:02.528Z,6.08
2018-06-21T07:18:33.355Z,5.60
2018-06-21T07:21:03.983Z,5.80
2018-06-21T07:23:34.841Z,6.30
2018-06-21T07:26:05.500Z,5.22
2018-06-21T07:28:36.293Z,6.10
2018-06-21T07:31:06.916Z,5.67
2018-06-21T07:33:37.611Z,5.72
2018-06-21T07:36:08.352Z,7.00
2018-06-21T07:38:38.975Z,5.08
2018-06-21T07:41:09.971Z,3.67
2018-06-21T07:43:40.764Z,5.12
2018-06-21T07:46:11.412Z,4.20
2018-06-21T07:48:42.201Z,3.05
2018-06-21T07:51:12.819Z,4.08
2018-06-21T07:53:43.560Z,4.67
2018-06-21T07:56:14.219Z,5.70
2018-06-21T07:58:44.947Z,4.75
2018-06-21T08:01:15.738Z,6.42
2018-06-21T08:03:46.033Z,3.70
2018-06-21T08:06:16.591Z,4.42
2018-06-21T08:08:47.296Z,4.00
2018-06-21T08:11:18.135Z,3.12
2018-06-21T08:13:49.084Z,3.62
2018-06-21T08:16:19.925Z,4.15
2018-06-21T08:18:50.800Z,4.10
2018-06-21T08:21:21.577Z,7.35
2018-06-21T08:23:52.353Z,3.27
2018-06-21T08:26:23.190Z,3.70
2018-06-21T08:28:53.913Z,4.33
2018-06-21T08:31:24.762Z,4.37
2018-06-21T08:33:55.546Z,4.22
2018-06-21T08:36:26.312Z,4.53
2018-06-21T08:38:57.236Z,4.60
2018-06-21T08:41:32.760Z,4.65
2018-06-21T08:44:03.429Z,3.47
2018-06-21T08:46:34.244Z,4.83
2018-06-21T08:49:05.043Z,4.33
2018-06-21T08:51:35.798Z,4.03
2018-06-21T08:54:06.575Z,5.37
2018-06-21T08:56:37.320Z,7.87
2018-06-21T08:59:08.014Z,5.85
2018-06-21T09:01:38.838Z,4.72
2018-06-21T09:04:09.484Z,4.85
2018-06-21T09:06:40.113Z,4.33
2018-06-21T09:09:11.103Z,4.03
2018-06-21T09:11:41.813Z,3.12
2018-06-21T09:14:12.643Z,4.17
2018-06-21T09:16:43.599Z,3.95
2018-06-21T09:19:14.484Z,4.25
2018-06-21T09:21:45.272Z,5.40
2018-06-21T09:24:16.280Z,4.05
2018-06-21T09:26:47.102Z,5.75
2018-06-21T09:29:17.920Z,2.90
2018-06-21T09:31:48.711Z,3.60
2018-06-21T09:34:19.455Z,3.60
2018-06-21T09:36:50.236Z,3.62
2018-06-21T09:39:25.872Z,3.72
2018-06-21T09:42:01.733Z,4.60
2018-06-21T09:44:34.414Z,4.90
2018-06-21T09:47:10.187Z,4.87
2018-06-21T09:49:41.037Z,2.80
2018-06-21T09:52:11.918Z,2.27
2018-06-21T09:54:42.698Z,3.98
2018-06-21T09:57:12.914Z,5.53
2018-06-21T09:59:43.079Z,4.20
2018-06-21T10:02:13.947Z,3.30
2018-06-21T10:04:44.712Z,4.60
2018-06-21T10:07:15.587Z,8.50
2018-06-21T10:09:46.268Z,4.30
2018-06-21T10:12:17.213Z,7.10
2018-06-21T10:14:47.989Z,3.30
2018-06-21T10:17:18.703Z,6.47
2018-06-21T10:19:49.664Z,5.78
2018-06-21T10:22:20.548Z,5.22
2018-06-21T10:24:51.377Z,4.90
2018-06-21T10:27:22.159Z,6.67
2018-06-21T10:29:52.938Z,6.22
2018-06-21T10:32:23.779Z,4.15
2018-06-21T10:34:54.627Z,5.15
2018-06-21T10:37:25.433Z,3.77
2018-06-21T10:39:56.062Z,3.62
2018-06-21T10:42:26.744Z,4.33
2018-06-21T10:44:57.414Z,3.15
2018-06-21T10:47:28.247Z,3.60
2018-06-21T10:49:59.002Z,4.30
2018-06-21T10:52:29.691Z,4.95
2018-06-21T10:55:00.542Z,4.83
2018-06-21T10:57:31.456Z,4.17
2018-06-21T11:00:02.494Z,3.87
2018-06-21T11:02:33.304Z,3.25
2018-06-21T11:05:04.149Z,5.87
2018-06-21T11:07:35.021Z,4.72
2018-06-21T11:10:05.681Z,6.53
2018-06-21T11:12:36.490Z,6.03
2018-06-21T11:15:07.296Z,4.87
2018-06-21T11:17:38.210Z,5.62
2018-06-21T11:20:08.839Z,4.72
2018-06-21T11:22:39.496Z,8.00
2018-06-21T11:25:10.421Z,5.15
2018-06-21T11:27:41.223Z,5.33
2018-06-21T11:30:11.888Z,3.80
2018-06-21T11:32:42.540Z,4.83
2018-06-21T11:35:13.369Z,4.62
2018-06-21T11:37:44.196Z,4.00
2018-06-21T11:40:15.025Z,4.78
2018-06-21T11:42:45.771Z,7.05
2018-06-21T11:45:16.606Z,6.00
2018-06-21T11:47:47.481Z,3.95
2018-06-21T11:50:18.208Z,5.12
2018-06-21T11:52:49.035Z,6.62
2018-06-21T11:55:19.788Z,4.17
2018-06-21T11:57:50.613Z,3.92
2018-06-21T12:00:21.391Z,2.58
2018-06-21T12:02:52.045Z,7.17
2018-06-21T12:05:22.716Z,3.92
2018-06-21T12:07:53.393Z,4.00
2018-06-21T12:10:24.188Z,3.30
2018-06-21T12:12:55.045Z,3.47
2018-06-21T12:15:25.739Z,3.25
2018-06-21T12:17:56.493Z,3.00
2018-06-21T12:20:27.298Z,3.72
2018-06-21T12:22:58.267Z,4.65
2018-06-21T12:25:29.495Z,2.10
2018-06-21T12:28:00.566Z,8.25
2018-06-21T12:30:31.312Z,4.17
2018-06-21T12:33:02.074Z,3.35
2018-06-21T12:35:32.966Z,3.58
2018-06-21T12:38:03.925Z,3.90
2018-06-21T12:40:34.235Z,4.67
2018-06-21T12:43:04.897Z,2.22
2018-06-21T12:45:35.773Z,3.80
2018-06-21T12:48:06.894Z,3.27
2018-06-21T12:50:37.707Z,3.83
2018-06-21T12:53:08.646Z,5.33
2018-06-21T12:55:40.794Z,2.12
2018-06-21T12:58:11.704Z,3.40
2018-06-21T13:00:42.601Z,4.30
2018-06-21T13:03:13.416Z,2.95
2018-06-21T13:05:44.313Z,5.08
2018-06-21T13:08:24.728Z,4.40
2018-06-21T13:11:06.437Z,3.75
2018-06-21T13:13:38.018Z,2.37
2018-06-21T13:16:08.952Z,2.95
2018-06-21T13:18:39.817Z,4.05
2018-06-21T13:21:10.631Z,2.50
2018-06-21T13:23:41.446Z,2.70
2018-06-21T13:26:12.412Z,3.75
2018-06-21T13:28:43.379Z,4.03
2018-06-21T13:31:14.179Z,2.90
2018-06-21T13:33:45.096Z,3.92
2018-06-21T13:36:16.823Z,3.73
2018-06-21T13:38:47.894Z,6.90
2018-06-21T13:41:18.641Z,4.50
2018-06-21T13:43:50.121Z,5.23
2018-06-21T13:46:20.911Z,5.93
2018-06-21T13:48:51.696Z,4.20
2018-06-21T13:51:22.376Z,5.70
2018-06-21T13:53:53.081Z,5.10
2018-06-21T13:56:23.351Z,7.00
2018-06-21T13:58:53.763Z,5.47
2018-06-21T14:01:24.410Z,8.93
2018-06-21T14:03:55.219Z,7.37
2018-06-21T14:06:25.952Z,4.50
2018-06-21T14:08:56.655Z,8.03
2018-06-21T14:11:27.470Z,5.70
2018-06-21T14:13:58.737Z,3.90
2018-06-21T14:16:29.563Z,6.17
2018-06-21T14:19:00.600Z,5.23
2018-06-21T14:21:31.411Z,5.27
2018-06-21T14:24:02.254Z,5.70
2018-06-21T14:26:32.974Z,3.50
2018-06-21T14:29:03.902Z,4.37
2018-06-21T14:31:34.638Z,4.43
2018-06-21T14:34:06.630Z,3.53
2018-06-21T14:36:37.541Z,5.17
2018-06-21T14:39:09.455Z,4.03
2018-06-21T14:41:40.365Z,2.97
2018-06-21T14:44:11.145Z,3.20
2018-06-21T14:46:41.942Z,3.07
2018-06-21T14:49:12.767Z,2.53
2018-06-21T14:51:43.602Z,4.97
2018-06-21T14:54:14.368Z,2.97
2018-06-21T14:56:45.136Z,3.70
2018-06-21T14:59:15.799Z,3.13
2018-06-21T15:01:46.523Z,3.77
2018-06-21T15:04:17.236Z,6.57
2018-06-21T15:06:48.064Z,3.93
2018-06-21T15:09:18.809Z,4.47
2018-06-21T15:11:49.466Z,4.47
2018-06-21T15:14:20.215Z,5.40
2018-06-21T15:16:50.962Z,4.50
2018-06-21T15:19:21.764Z,5.47
2018-06-21T15:21:52.495Z,4.87
2018-06-21T15:24:23.265Z,5.90
2018-06-21T15:26:54.008Z,4.80
2018-06-21T15:29:24.797Z,5.33
2018-06-21T15:31:55.962Z,5.17
2018-06-21T15:34:26.742Z,5.73
2018-06-21T15:36:57.516Z,5.33
2018-06-21T15:39:28.245Z,5.87
2018-06-21T15:41:59.023Z,5.60
2018-06-21T15:44:29.743Z,6.00
2018-06-21T15:46:59.916Z,5.63
2018-06-21T15:49:30.459Z,5.40
2018-06-21T15:52:01.202Z,6.03
2018-06-21T15:54:32.028Z,6.17
2018-06-21T15:57:02.219Z,6.63
2018-06-21T15:59:32.300Z,6.37
2018-06-21T16:02:02.933Z,6.70
2018-06-21T16:04:34.251Z,5.80
2018-06-21T16:07:05.032Z,5.63
2018-06-21T16:09:35.728Z,6.93
2018-06-21T16:12:06.477Z,6.00
2018-06-21T16:14:37.595Z,7.03
2018-06-21T16:17:08.759Z,5.47
2018-06-21T16:19:39.657Z,7.13
2018-06-21T16:22:10.627Z,4.07
2018-06-21T16:24:41.493Z,4.17
2018-06-21T16:27:12.344Z,3.97
2018-06-21T16:29:43.335Z,3.63
2018-06-21T16:32:14.107Z,3.10
2018-06-21T16:34:44.968Z,3.73
2018-06-21T16:37:16.099Z,4.10
2018-06-21T16:39:46.838Z,3.23
2018-06-21T16:42:17.780Z,3.90
2018-06-21T16:44:48.567Z,5.33
2018-06-21T16:47:19.597Z,6.77
2018-06-21T16:49:50.670Z,3.07
2018-06-21T16:52:21.659Z,3.47
2018-06-21T16:54:52.657Z,2.87
2018-06-21T16:57:23.899Z,4.53
2018-06-21T16:59:54.871Z,7.80
2018-06-21T17:02:25.687Z,8.40
2018-06-21T17:04:56.795Z,1.77
2018-06-21T17:07:27.628Z,4.77
2018-06-21T17:09:58.567Z,3.47
2018-06-21T17:12:29.374Z,9.23
2018-06-21T17:15:00.364Z,2.63
2018-06-21T17:17:31.320Z,3.40
2018-06-21T17:20:02.126Z,4.83
2018-06-21T17:22:33.148Z,3.98
2018-06-21T17:25:04.379Z,4.17
2018-06-21T17:27:35.393Z,2.17
2018-06-21T17:30:06.892Z,5.62
2018-06-21T17:32:37.727Z,2.72
2018-06-21T17:35:08.513Z,2.90
2018-06-21T17:37:39.375Z,4.23
2018-06-21T17:40:10.091Z,3.00
2018-06-21T17:42:40.795Z,5.17
2018-06-21T17:45:11.558Z,3.67
2018-06-21T17:47:42.392Z,3.83
2018-06-21T17:50:13.180Z,3.05
2018-06-21T17:52:43.883Z,3.85
2018-06-21T17:55:14.609Z,2.87
2018-06-21T17:57:45.527Z,4.08
2018-06-21T18:00:16.268Z,2.83
2018-06-21T18:02:46.400Z,3.53
2018-06-21T18:05:16.893Z,3.70
2018-06-21T18:07:47.937Z,2.90
2018-06-21T18:10:18.936Z,4.50
2018-06-21T18:12:49.659Z,4.17
2018-06-21T18:15:20.600Z,4.00
2018-06-21T18:17:51.288Z,2.90
2018-06-21T18:20:21.984Z,2.97
2018-06-21T18:22:52.912Z,2.30
2018-06-21T18:25:23.978Z,2.50
2018-06-21T18:27:55.667Z,2.63
2018-06-21T18:30:26.467Z,2.80
2018-06-21T18:32:57.335Z,4.47
2018-06-21T18:35:28.219Z,3.27
2018-06-21T18:37:58.899Z,3.77
2018-06-21T18:40:29.617Z,4.20
2018-06-21T18:43:00.347Z,3.10
2018-06-21T18:45:31.006Z,5.10
2018-06-21T18:48:01.807Z,3.50
2018-06-21T18:50:32.607Z,2.90
2018-06-21T18:53:03.335Z,3.57
2018-06-21T18:55:34.112Z,5.37
2018-06-21T18:58:04.830Z,3.60
2018-06-21T19:00:35.687Z,2.10
2018-06-21T19:03:06.342Z,3.83
2018-06-21T19:05:37.269Z,4.03
2018-06-21T19:08:13.299Z,3.67
2018-06-21T19:10:49.361Z,3.17
2018-06-21T19:13:20.164Z,4.30
2018-06-21T19:15:51.132Z,2.80
2018-06-21T19:18:22.904Z,2.60
2018-06-21T19:20:53.648Z,2.37
2018-06-21T19:23:24.263Z,3.50
2018-06-21T19:25:55.039Z,2.47
2018-06-21T19:28:25.968Z,3.63
2018-06-21T19:30:56.922Z,3.77
2018-06-21T19:33:27.805Z,3.17
2018-06-21T19:35:58.761Z,3.50
2018-06-21T19:38:29.893Z,3.17
2018-06-21T19:41:00.719Z,2.93
2018-06-21T19:43:32.935Z,3.30
2018-06-21T19:46:03.770Z,2.93
2018-06-21T19:48:34.792Z,5.20
2018-06-21T19:51:05.551Z,3.47
2018-06-21T19:53:36.333Z,4.93
2018-06-21T19:56:07.207Z,2.97
2018-06-21T19:58:38.065Z,4.30
2018-06-21T20:01:08.975Z,4.47
2018-06-21T20:03:39.941Z,4.07
2018-06-21T20:06:10.711Z,2.47
2018-06-21T20:08:41.387Z,5.70
2018-06-21T20:11:17.450Z,3.30
2018-06-21T20:13:49.122Z,8.57
2018-06-21T20:16:20.640Z,5.17
2018-06-21T20:18:51.684Z,8.33
2018-06-21T20:21:22.797Z,3.93
2018-06-21T20:23:53.575Z,4.67
2018-06-21T20:26:24.430Z,5.07
2018-06-21T20:28:55.560Z,4.13
2018-06-21T20:31:26.558Z,2.53
2018-06-21T20:33:57.596Z,3.00
2018-06-21T20:36:29.812Z,5.43
2018-06-21T20:39:00.842Z,6.73
2018-06-21T20:41:31.697Z,4.67
2018-06-21T20:44:02.770Z,4.57
2018-06-21T20:46:33.939Z,3.53
2018-06-21T20:49:05.132Z,4.50
2018-06-21T20:51:36.111Z,3.63
2018-06-21T20:54:07.052Z,2.70
2018-06-21T20:56:37.897Z,2.77
2018-06-21T20:59:08.775Z,6.07
2018-06-21T21:01:39.669Z,4.83
2018-06-21T21:04:10.505Z,3.60
2018-06-21T21:06:41.544Z,6.13
2018-06-21T21:09:12.443Z,2.93
2018-06-21T21:11:43.270Z,6.17
2018-06-21T21:14:14.040Z,3.30
2018-06-21T21:16:44.630Z,3.43
2018-06-21T21:19:15.530Z,9.07
2018-06-21T21:21:46.286Z,2.80
2018-06-21T21:24:17.072Z,3.13
2018-06-21T21:26:47.967Z,2.97
2018-06-21T21:29:19.057Z,2.73
2018-06-21T21:31:49.746Z,5.17
2018-06-21T21:34:20.948Z,4.50
2018-06-21T21:36:51.919Z,6.30
2018-06-21T21:39:22.817Z,5.97
2018-06-21T21:41:53.852Z,3.50
2018-06-21T21:44:24.703Z,3.43
2018-06-21T21:46:55.695Z,3.13
2018-06-21T21:49:26.583Z,5.07
2018-06-21T21:51:57.661Z,5.93
2018-06-21T21:54:28.519Z,4.23
2018-06-21T21:56:58.732Z,3.77
2018-06-21T21:59:29.453Z,2.77
2018-06-21T22:02:00.237Z,7.93
2018-06-21T22:04:30.927Z,2.90
2018-06-21T22:07:01.681Z,2.90
2018-06-21T22:09:32.480Z,3.57
2018-06-21T22:12:03.338Z,3.13
2018-06-21T22:14:34.239Z,3.30
2018-06-21T22:17:05.123Z,6.43
2018-06-21T22:19:35.347Z,2.50
2018-06-21T22:22:05.926Z,3.93
2018-06-21T22:24:36.633Z,2.60
2018-06-21T22:27:07.377Z,1.63
2018-06-21T22:29:38.055Z,3.73
2018-06-21T22:32:08.891Z,4.60
2018-06-21T22:34:39.516Z,3.07
2018-06-21T22:37:10.328Z,3.27
2018-06-21T22:39:41.108Z,2.47
2018-06-21T22:42:11.847Z,4.70
2018-06-21T22:44:42.489Z,1.87
2018-06-21T22:47:13.205Z,4.43
2018-06-21T22:49:44.100Z,3.13
2018-06-21T22:52:14.852Z,8.87
2018-06-21T22:54:45.515Z,2.40
2018-06-21T22:57:16.214Z,4.80
2018-06-21T22:59:46.873Z,3.20
2018-06-21T23:02:18.319Z,3.47
2018-06-21T23:04:49.154Z,5.50
2018-06-21T23:07:19.936Z,2.60
2018-06-21T23:09:50.809Z,1.70
2018-06-21T23:12:21.515Z,3.37
2018-06-21T23:14:52.286Z,3.00
2018-06-21T23:17:23.009Z,3.93
2018-06-21T23:19:53.654Z,3.83
2018-06-21T23:22:23.889Z,5.53
2018-06-21T23:24:54.424Z,5.63
2018-06-21T23:27:25.191Z,3.13
2018-06-21T23:29:55.428Z,3.23
2018-06-21T23:32:25.910Z,3.07
2018-06-21T23:34:56.653Z,5.53
2018-06-21T23:37:27.382Z,5.47
2018-06-21T23:39:58.171Z,3.17
2018-06-21T23:42:29.008Z,5.20
2018-06-21T23:44:59.733Z,3.83
2018-06-21T23:47:30.421Z,4.47
2018-06-21T23:50:01.311Z,4.70
2018-06-21T23:52:32.240Z,2.83
2018-06-21T23:55:02.873Z,2.57
2018-06-21T23:57:33.685Z,2.90
